Time;durP1;ratioP1;P1;durP2;ratioP2;P2;SDS_P1;SDS_P2;PMS_P1;PMS_P2;Temp;Humidity;BMP_temperature;BMP_pressure;BME280_temperature;BME280_humidity;BME280_pressure;Samples;Min_cycle;Max_cycle;Signal;HPM_P1;HPM_P2
2022/08/01 00:00:16;;;;;;;5.90;4.33;;;20.70;32.40;;;;;;5022814;28;21457;-51
2022/08/01 00:02:44;;;;;;;5.73;4.50;;;20.60;90.60;;;;;;5022541;28;20529;-51
2022/08/01 00:05:11;;;;;;;5.33;4.07;;;20.50;99.90;;;;;;5022686;28;20499;-52
2022/08/01 00:07:38;;;;;;;5.97;4.17;;;20.40;99.90;;;;;;5023969;28;20528;-50
2022/08/01 00:10:08;;;;;;;7.57;4.50;;;20.30;99.90;;;;;;5027051;28;20467;-51
2022/08/01 00:12:35;;;;;;;8.00;4.50;;;20.20;99.90;;;;;;5021730;28;20559;-52
2022/08/01 00:15:02;;;;;;;4.37;3.93;;;20.20;99.90;;;;;;5020558;28;20544;-51
2022/08/01 00:17:28;;;;;;;4.60;4.20;;;20.10;99.90;;;;;;5022498;28;20458;-50
2022/08/01 00:19:56;;;;;;;4.30;4.03;;;20.00;99.90;;;;;;5022955;28;20953;-51
2022/08/01 00:22:23;;;;;;;6.00;4.23;;;20.00;99.90;;;;;;5022828;28;20498;-51
2022/08/01 00:24:50;;;;;;;4.77;4.40;;;19.90;99.90;;;;;;5023108;28;20466;-50
2022/08/01 00:27:16;;;;;;;5.43;4.90;;;19.70;99.90;;;;;;5024301;28;20846;-51
2022/08/01 00:29:43;;;;;;;4.70;4.40;;;19.60;99.90;;;;;;5022909;28;20898;-51
2022/08/01 00:32:10;;;;;;;4.97;4.57;;;19.40;89.40;;;;;;5021506;28;20532;-51
2022/08/01 00:34:36;;;;;;;6.60;4.27;;;19.20;58.90;;;;;;5023996;28;20459;-51
2022/08/01 00:37:04;;;;;;;17.83;4.93;;;19.00;20.90;;;;;;5020592;28;20483;-52
2022/08/01 00:39:32;;;;;;;5.00;4.27;;;18.80;99.90;;;;;;5019648;28;20459;-51
2022/08/01 00:41:59;;;;;;;6.63;4.77;;;18.70;99.90;;;;;;5025012;28;20843;-50
2022/08/01 00:44:25;;;;;;;10.10;4.70;;;18.60;99.90;;;;;;5019562;28;21049;-50
2022/08/01 00:46:52;;;;;;;8.90;5.27;;;18.50;99.90;;;;;;5021931;28;20495;-50
2022/08/01 00:49:18;;;;;;;10.30;5.30;;;18.40;99.90;;;;;;5024773;28;20486;-50
2022/08/01 00:51:45;;;;;;;6.50;4.23;;;18.40;81.80;;;;;;5022504;28;20557;-51
2022/08/01 00:54:13;;;;;;;4.47;3.80;;;18.30;71.60;;;;;;5021977;28;20958;-50
2022/08/01 00:56:40;;;;;;;4.90;4.50;;;18.40;52.60;;;;;;5023572;28;20898;-52
2022/08/01 00:59:08;;;;;;;5.17;4.40;;;18.30;39.20;;;;;;5020289;28;20462;-51
2022/08/01 01:01:34;;;;;;;4.67;3.70;;;18.30;28.40;;;;;;5021207;28;20482;-51
2022/08/01 01:04:01;;;;;;;6.50;4.90;;;18.20;27.70;;;;;;5028956;28;20506;-51
2022/08/01 01:06:35;;;;;;;5.00;4.60;;;18.20;92.30;;;;;;5023981;28;20537;-50
2022/08/01 01:09:20;;;;;;;5.10;4.60;;;18.10;99.90;;;;;;5022033;28;20489;-51
2022/08/01 01:11:54;;;;;;;5.37;4.83;;;18.10;99.90;;;;;;5022525;28;20883;-51
2022/08/01 01:14:29;;;;;;;4.80;4.33;;;18.10;99.90;;;;;;5019779;28;20892;-50
2022/08/01 01:16:58;;;;;;;4.73;4.27;;;18.00;99.90;;;;;;5022436;28;20569;-51
2022/08/01 01:19:28;;;;;;;5.23;4.73;;;18.10;99.90;;;;;;5023835;28;20458;-50
2022/08/01 01:22:18;;;;;;;5.43;4.90;;;18.00;99.90;;;;;;5022601;28;20490;-51
2022/08/01 01:24:52;;;;;;;8.83;4.90;;;18.00;99.90;;;;;;5023595;28;20459;-51
2022/08/01 01:27:25;;;;;;;6.53;5.90;;;18.10;99.90;;;;;;5021928;28;20563;-51
2022/08/01 01:29:56;;;;;;;6.30;4.80;;;18.10;99.90;;;;;;5020954;28;20466;-51
2022/08/01 01:32:28;;;;;;;4.90;3.90;;;18.00;99.90;;;;;;5025046;28;20537;-51
2022/08/01 01:34:57;;;;;;;9.37;4.40;;;18.10;99.90;;;;;;5027901;28;20485;-51
2022/08/01 01:37:27;;;;;;;5.40;4.30;;;18.10;99.90;;;;;;5023830;28;20506;-52
2022/08/01 01:39:55;;;;;;;4.93;4.53;;;18.10;99.90;;;;;;5028098;28;20501;-51
2022/08/01 01:42:24;;;;;;;5.43;4.90;;;18.10;99.90;;;;;;5026880;28;20477;-51
2022/08/01 01:44:54;;;;;;;6.70;4.30;;;18.10;99.90;;;;;;5025337;28;20490;-50
2022/08/01 01:47:22;;;;;;;5.60;5.10;;;18.10;99.90;;;;;;5025817;28;20502;-51
2022/08/01 01:49:50;;;;;;;6.30;4.50;;;18.10;99.90;;;;;;5063055;23;20515;-51
2022/08/01 01:52:19;;;;;;;5.37;4.97;;;18.10;99.90;;;;;;5045302;28;20450;-51
2022/08/01 01:54:48;;;;;;;4.87;4.50;;;18.10;99.90;;;;;;5045724;28;20822;-53
2022/08/01 01:57:17;;;;;;;7.57;5.50;;;18.00;99.90;;;;;;5045230;28;20975;-53
2022/08/01 01:59:45;;;;;;;5.37;4.87;;;18.00;99.90;;;;;;5041139;28;20970;-51
2022/08/01 02:02:15;;;;;;;8.73;5.33;;;18.00;99.90;;;;;;5041502;28;20519;-52
2022/08/01 02:04:44;;;;;;;7.27;5.40;;;18.00;99.90;;;;;;5043490;28;20856;-51
2022/08/01 02:07:13;;;;;;;5.13;4.70;;;18.00;99.90;;;;;;5044181;28;20543;-55
2022/08/01 02:09:42;;;;;;;5.80;4.80;;;17.90;99.90;;;;;;5040363;28;20474;-52
2022/08/01 02:12:12;;;;;;;5.20;4.80;;;18.00;99.90;;;;;;5044129;28;20482;-51
2022/08/01 02:14:40;;;;;;;7.10;5.10;;;17.90;99.90;;;;;;5043989;28;20508;-52
2022/08/01 02:17:07;;;;;;;6.80;5.77;;;17.90;99.90;;;;;;5044741;28;20465;-53
2022/08/01 02:19:35;;;;;;;5.17;4.67;;;17.80;99.90;;;;;;5041338;28;20478;-53
2022/08/01 02:22:06;;;;;;;5.50;5.07;;;17.80;99.90;;;;;;5046646;28;20485;-52
2022/08/01 02:24:38;;;;;;;5.40;5.00;;;17.70;99.90;;;;;;5042431;28;20483;-53
2022/08/01 02:27:08;;;;;;;4.63;4.30;;;17.80;99.90;;;;;;5045876;28;20489;-53
2022/08/01 02:29:41;;;;;;;7.80;5.30;;;17.80;99.90;;;;;;5043381;28;20505;-53
2022/08/01 02:32:11;;;;;;;7.83;5.60;;;17.80;99.90;;;;;;5047638;28;20489;-52
2022/08/01 02:34:40;;;;;;;6.27;5.67;;;17.80;99.90;;;;;;5040932;28;20511;-53
2022/08/01 02:37:08;;;;;;;5.80;5.30;;;17.80;99.90;;;;;;5042917;28;20489;-52
2022/08/01 02:39:37;;;;;;;6.63;5.20;;;17.80;99.90;;;;;;5038521;28;20509;-53
2022/08/01 02:42:08;;;;;;;6.13;5.63;;;17.70;99.90;;;;;;5041319;28;21535;-52
2022/08/01 02:44:40;;;;;;;5.83;5.37;;;17.80;99.90;;;;;;5042698;28;20567;-51
2022/08/01 02:47:07;;;;;;;5.57;5.07;;;17.80;99.90;;;;;;5043783;28;20941;-53
2022/08/01 02:49:36;;;;;;;5.83;5.33;;;17.80;99.90;;;;;;5039742;28;20559;-50
2022/08/01 02:52:08;;;;;;;5.47;5.07;;;17.80;99.90;;;;;;5044243;28;20494;-52
2022/08/01 02:54:37;;;;;;;5.57;5.17;;;17.80;99.90;;;;;;5043696;28;20999;-52
2022/08/01 02:57:05;;;;;;;5.87;5.43;;;17.80;99.90;;;;;;5043580;28;20541;-52
2022/08/01 02:59:34;;;;;;;6.53;5.93;;;17.80;99.90;;;;;;5038110;28;20506;-51
2022/08/01 03:02:02;;;;;;;8.63;5.40;;;17.80;99.90;;;;;;5041230;28;20482;-52
2022/08/01 03:04:29;;;;;;;6.23;5.73;;;17.80;99.90;;;;;;5042902;28;20462;-52
2022/08/01 03:06:58;;;;;;;6.63;6.03;;;17.80;99.90;;;;;;5045737;28;20925;-52
2022/08/01 03:09:28;;;;;;;6.30;5.87;;;17.80;99.90;;;;;;5041352;28;20531;-52
2022/08/01 03:11:57;;;;;;;5.83;5.37;;;17.80;99.90;;;;;;5042134;28;20497;-53
2022/08/01 03:14:25;;;;;;;7.27;5.70;;;17.80;99.90;;;;;;5040847;28;20545;-52
2022/08/01 03:16:53;;;;;;;6.67;6.07;;;17.80;99.90;;;;;;5043161;28;20501;-51
2022/08/01 03:19:23;;;;;;;6.20;5.80;;;17.90;99.90;;;;;;5043438;28;20481;-53
2022/08/01 03:21:51;;;;;;;6.17;5.67;;;17.90;99.90;;;;;;5044188;28;20539;-53
2022/08/01 03:24:20;;;;;;;8.03;7.00;;;17.90;99.90;;;;;;5042759;28;20487;-51
2022/08/01 03:26:49;;;;;;;5.60;5.20;;;17.90;99.90;;;;;;5044425;28;20490;-51
2022/08/01 03:29:19;;;;;;;7.77;7.10;;;17.90;99.90;;;;;;5040996;28;20513;-52
2022/08/01 03:31:47;;;;;;;6.40;5.67;;;17.90;99.90;;;;;;5041703;28;20461;-52
2022/08/01 03:34:14;;;;;;;7.40;6.37;;;17.90;99.90;;;;;;5041909;28;20509;-52
2022/08/01 03:36:47;;;;;;;6.47;5.63;;;17.80;99.90;;;;;;5042679;28;20897;-52
2022/08/01 03:39:17;;;;;;;8.90;6.93;;;17.90;99.90;;;;;;5039723;28;20513;-52
2022/08/01 03:41:51;;;;;;;6.90;6.40;;;17.90;99.90;;;;;;5039946;28;20884;-52
2022/08/01 03:44:25;;;;;;;7.23;6.30;;;17.90;99.90;;;;;;5042025;28;20484;-53
2022/08/01 03:46:59;;;;;;;6.90;6.33;;;17.90;99.90;;;;;;5039931;28;20500;-53
2022/08/01 03:49:30;;;;;;;6.70;6.20;;;17.90;99.90;;;;;;5035921;28;20525;-52
2022/08/01 03:51:57;;;;;;;6.80;6.10;;;17.90;99.90;;;;;;5043691;28;20490;-53
2022/08/01 03:54:28;;;;;;;6.60;6.00;;;17.90;99.90;;;;;;5042482;28;20521;-53
2022/08/01 03:56:58;;;;;;;8.87;6.47;;;17.90;99.90;;;;;;5044720;28;20490;-52
2022/08/01 03:59:26;;;;;;;6.80;6.10;;;17.90;99.90;;;;;;5043720;28;20513;-51
2022/08/01 04:01:53;;;;;;;7.07;6.47;;;17.90;99.90;;;;;;5041814;28;21055;-53
2022/08/01 04:04:20;;;;;;;7.10;6.50;;;17.90;99.90;;;;;;5041951;28;20537;-51
2022/08/01 04:06:50;;;;;;;7.20;6.70;;;17.90;99.90;;;;;;5044129;28;20454;-53
2022/08/01 04:09:17;;;;;;;7.03;6.27;;;17.90;99.90;;;;;;5044265;28;20478;-52
2022/08/01 04:11:43;;;;;;;6.30;5.73;;;17.90;99.90;;;;;;5042355;28;20874;-53
2022/08/01 04:14:11;;;;;;;8.20;6.57;;;17.90;99.90;;;;;;5041734;28;20525;-51
2022/08/01 04:16:38;;;;;;;7.23;6.60;;;17.90;99.90;;;;;;5041636;28;20531;-51
2022/08/01 04:19:07;;;;;;;8.00;7.17;;;17.90;99.90;;;;;;5042053;28;20494;-53
2022/08/01 04:21:36;;;;;;;7.13;6.63;;;18.00;99.90;;;;;;5040875;28;20494;-52
2022/08/01 04:24:07;;;;;;;7.60;6.80;;;18.00;99.90;;;;;;5042455;28;20494;-51
2022/08/01 04:26:36;;;;;;;7.50;6.80;;;17.90;99.90;;;;;;5039299;28;20631;-53
2022/08/01 04:29:07;;;;;;;7.50;6.90;;;18.00;99.90;;;;;;5040389;28;22443;-53
2022/08/01 04:31:36;;;;;;;7.80;7.00;;;18.00;99.90;;;;;;5040241;28;20494;-51
2022/08/01 04:34:05;;;;;;;8.03;7.23;;;18.00;99.90;;;;;;5041475;28;20509;-52
2022/08/01 04:36:34;;;;;;;8.73;7.93;;;18.00;99.90;;;;;;5042039;28;20535;-53
2022/08/01 04:39:03;;;;;;;12.50;7.77;;;18.00;99.90;;;;;;5040895;28;20547;-52
2022/08/01 04:41:32;;;;;;;8.60;7.20;;;18.00;99.90;;;;;;5038485;28;20974;-51
2022/08/01 04:43:59;;;;;;;9.10;7.30;;;18.10;99.90;;;;;;5039381;28;20501;-51
2022/08/01 04:46:28;;;;;;;8.43;7.60;;;18.00;99.90;;;;;;5040770;28;20468;-53
2022/08/01 04:48:57;;;;;;;8.90;8.07;;;18.10;99.90;;;;;;5048084;28;20513;-53
2022/08/01 04:51:24;;;;;;;10.50;8.50;;;18.10;99.90;;;;;;5045210;28;20559;-52
2022/08/01 04:53:51;;;;;;;7.87;7.20;;;18.10;99.90;;;;;;5043326;28;21022;-52
2022/08/01 04:56:18;;;;;;;8.83;8.03;;;18.10;99.90;;;;;;5044959;28;20461;-51
2022/08/01 04:58:44;;;;;;;8.73;7.93;;;18.20;99.90;;;;;;5037967;28;20518;-53
2022/08/01 05:01:11;;;;;;;8.33;7.50;;;18.10;99.90;;;;;;5040488;28;20478;-52
2022/08/01 05:03:38;;;;;;;8.87;7.97;;;18.20;99.90;;;;;;5049263;28;20502;-52
2022/08/01 05:06:06;;;;;;;9.93;8.93;;;18.20;99.90;;;;;;5047215;28;20493;-52
2022/08/01 05:08:33;;;;;;;10.00;9.10;;;18.20;99.90;;;;;;5040217;28;20667;-52
2022/08/01 05:11:00;;;;;;;11.03;9.70;;;18.20;99.90;;;;;;5045122;28;20905;-52
2022/08/01 05:13:27;;;;;;;9.73;8.90;;;18.20;99.90;;;;;;5037351;28;20545;-50
2022/08/01 05:15:54;;;;;;;11.23;10.20;;;18.20;99.90;;;;;;5044789;28;20531;-53
2022/08/01 05:18:21;;;;;;;11.27;10.37;;;18.20;99.90;;;;;;5044540;28;20543;-53
2022/08/01 05:20:48;;;;;;;14.40;11.03;;;18.20;99.90;;;;;;5044442;28;20494;-51
2022/08/01 05:23:15;;;;;;;12.67;10.17;;;18.30;99.90;;;;;;5045118;28;20481;-51
2022/08/01 05:25:42;;;;;;;12.83;10.93;;;18.30;99.90;;;;;;5040973;28;20547;-52
2022/08/01 05:28:09;;;;;;;14.17;10.80;;;18.20;99.90;;;;;;5044799;28;20469;-51
2022/08/01 05:30:35;;;;;;;14.40;11.43;;;18.30;99.90;;;;;;5042711;28;20485;-53
2022/08/01 05:33:02;;;;;;;12.23;11.07;;;18.30;99.90;;;;;;5041334;28;20465;-52
2022/08/01 05:35:29;;;;;;;12.43;11.17;;;18.30;99.90;;;;;;5046403;28;20517;-53
2022/08/01 05:37:56;;;;;;;15.07;10.90;;;18.30;99.90;;;;;;5042508;28;20873;-53
2022/08/01 05:40:24;;;;;;;15.57;11.70;;;18.40;99.90;;;;;;5042609;28;20509;-53
2022/08/01 05:42:50;;;;;;;14.03;12.63;;;18.40;99.90;;;;;;5043594;28;20548;-52
2022/08/01 05:45:17;;;;;;;14.23;12.83;;;18.40;99.90;;;;;;5043270;28;20497;-52
2022/08/01 05:47:43;;;;;;;13.90;12.50;;;18.40;99.90;;;;;;5043198;28;20975;-52
2022/08/01 05:50:10;;;;;;;13.60;12.20;;;18.40;99.90;;;;;;5045147;28;21018;-53
2022/08/01 05:52:37;;;;;;;14.57;13.07;;;18.40;99.90;;;;;;5040571;28;20567;-54
2022/08/01 05:55:04;;;;;;;13.03;11.87;;;18.40;99.90;;;;;;5045647;28;20600;-51
2022/08/01 05:57:32;;;;;;;13.97;12.60;;;18.40;99.90;;;;;;5045426;28;20493;-52
2022/08/01 05:59:59;;;;;;;17.53;13.57;;;18.40;99.90;;;;;;5043294;28;20520;-53
2022/08/01 06:02:25;;;;;;;45.53;12.50;;;18.40;99.90;;;;;;5042489;28;20468;-54
2022/08/01 06:04:52;;;;;;;12.80;11.60;;;18.50;99.90;;;;;;5043604;28;20876;-50
2022/08/01 06:07:19;;;;;;;23.57;11.70;;;18.50;99.90;;;;;;5051517;28;20493;-53
2022/08/01 06:09:45;;;;;;;13.73;11.20;;;18.40;99.90;;;;;;5045406;28;20580;-52
2022/08/01 06:12:12;;;;;;;12.60;11.30;;;18.50;99.90;;;;;;5050997;28;20486;-52
2022/08/01 06:14:40;;;;;;;11.57;10.47;;;18.50;99.90;;;;;;5040406;28;21050;-51
2022/08/01 06:17:06;;;;;;;13.87;11.60;;;18.60;99.90;;;;;;5037715;28;21063;-52
2022/08/01 06:19:33;;;;;;;15.70;11.77;;;18.60;99.90;;;;;;5040499;28;20501;-52
2022/08/01 06:21:59;;;;;;;11.43;10.00;;;18.60;99.90;;;;;;5043937;28;20554;-52
2022/08/01 06:24:26;;;;;;;14.70;10.13;;;18.70;99.90;;;;;;5043512;28;20486;-52
2022/08/01 06:26:53;;;;;;;13.40;11.20;;;18.70;99.90;;;;;;5039283;28;20454;-51
2022/08/01 06:29:19;;;;;;;10.07;9.07;;;18.70;99.90;;;;;;5040539;28;20862;-53
2022/08/01 06:31:47;;;;;;;11.70;9.80;;;18.70;99.90;;;;;;5040630;28;20557;-53
2022/08/01 06:34:15;;;;;;;10.53;9.43;;;18.80;99.90;;;;;;5045162;28;20563;-51
2022/08/01 06:36:41;;;;;;;10.27;9.27;;;18.90;99.90;;;;;;5044075;28;20462;-52
2022/08/01 06:39:08;;;;;;;9.70;8.73;;;18.90;99.90;;;;;;5042981;28;20509;-51
2022/08/01 06:41:34;;;;;;;9.03;7.87;;;19.00;99.90;;;;;;5041801;28;20461;-51
2022/08/01 06:44:02;;;;;;;9.60;8.70;;;19.00;99.90;;;;;;5041002;28;20520;-53
2022/08/01 06:46:28;;;;;;;8.77;7.97;;;19.00;99.90;;;;;;5038672;28;20458;-53
2022/08/01 06:48:56;;;;;;;9.07;8.27;;;18.90;99.90;;;;;;5042842;28;20571;-52
2022/08/01 06:51:23;;;;;;;7.60;6.90;;;19.00;99.90;;;;;;5043813;28;20485;-52
2022/08/01 06:53:49;;;;;;;6.47;5.97;;;19.00;99.90;;;;;;5042100;28;20490;-52
2022/08/01 06:56:16;;;;;;;7.20;6.60;;;19.00;99.90;;;;;;5041410;28;20512;-51
2022/08/01 06:58:42;;;;;;;7.10;6.60;;;19.00;99.90;;;;;;5037835;28;20505;-52
2022/08/01 07:01:09;;;;;;;7.80;7.10;;;19.10;99.90;;;;;;5038034;28;20559;-52
2022/08/01 07:03:36;;;;;;;6.93;6.30;;;19.10;99.90;;;;;;5038802;28;20498;-52
2022/08/01 07:06:04;;;;;;;6.37;5.90;;;19.20;99.90;;;;;;5040478;28;20450;-52
2022/08/01 07:08:31;;;;;;;5.90;5.40;;;19.30;99.90;;;;;;5039940;28;20492;-52
2022/08/01 07:10:59;;;;;;;6.30;5.70;;;19.20;99.90;;;;;;5043087;28;20490;-52
2022/08/01 07:13:26;;;;;;;7.13;5.73;;;19.20;99.90;;;;;;5044409;28;20472;-51
2022/08/01 07:15:53;;;;;;;5.27;4.87;;;19.20;99.90;;;;;;5044207;28;20489;-52
2022/08/01 07:18:20;;;;;;;5.37;4.97;;;19.20;99.90;;;;;;5047728;28;20481;-52
2022/08/01 07:20:47;;;;;;;6.03;5.10;;;19.20;99.90;;;;;;5045219;28;20951;-52
2022/08/01 07:23:15;;;;;;;6.10;5.60;;;19.20;99.90;;;;;;5042203;28;21044;-52
2022/08/01 07:25:41;;;;;;;5.20;4.80;;;19.30;99.90;;;;;;5043521;28;20482;-52
2022/08/01 07:28:08;;;;;;;6.70;4.90;;;19.40;99.90;;;;;;5041484;28;20493;-52
2022/08/01 07:30:35;;;;;;;8.37;5.87;;;19.40;99.90;;;;;;5037126;28;20536;-51
2022/08/01 07:33:02;;;;;;;8.73;5.20;;;19.50;99.90;;;;;;5041098;28;20494;-52
2022/08/01 07:35:28;;;;;;;5.73;5.10;;;19.60;99.90;;;;;;5043064;28;20517;-52
2022/08/01 07:37:55;;;;;;;5.13;4.83;;;19.70;99.90;;;;;;5043532;28;20490;-52
2022/08/01 07:40:23;;;;;;;4.80;4.50;;;19.70;21.40;;;;;;5042235;28;20936;-52
2022/08/01 07:42:49;;;;;;;5.83;5.33;;;19.70;30.40;;;;;;5044853;28;20533;-52
2022/08/01 07:45:16;;;;;;;7.00;3.50;;;19.70;36.50;;;;;;5043520;28;20507;-52
2022/08/01 07:47:43;;;;;;;3.30;3.10;;;19.60;50.30;;;;;;5045040;28;20470;-52
2022/08/01 07:50:12;;;;;;;3.63;3.33;;;19.60;67.30;;;;;;5045102;23;20897;-52
2022/08/01 07:52:38;;;;;;;3.23;3.00;;;19.70;81.20;;;;;;5022473;28;20550;-53
2022/08/01 07:55:06;;;;;;;3.73;3.00;;;19.70;87.60;;;;;;5025957;28;20506;-51
2022/08/01 07:57:34;;;;;;;4.37;3.67;;;19.80;98.20;;;;;;5022455;28;20466;-51
2022/08/01 08:00:01;;;;;;;5.23;4.73;;;19.80;92.10;;;;;;5030274;28;21046;-52
2022/08/01 08:02:28;;;;;;;3.90;3.60;;;19.80;99.90;;;;;;5018490;28;20581;-53
2022/08/01 08:04:54;;;;;;;4.33;4.03;;;19.80;99.90;;;;;;5015172;28;20553;-52
2022/08/01 08:07:21;;;;;;;3.97;3.77;;;19.80;99.90;;;;;;5024385;28;20513;-51
2022/08/01 08:09:47;;;;;;;4.03;3.80;;;19.80;99.90;;;;;;5023072;28;20506;-52
2022/08/01 08:12:14;;;;;;;4.50;4.17;;;19.70;99.90;;;;;;5018161;28;20462;-51
2022/08/01 08:14:42;;;;;;;4.13;3.80;;;19.60;98.90;;;;;;5026781;28;20518;-52
2022/08/01 08:17:08;;;;;;;4.77;4.40;;;19.60;98.70;;;;;;5025315;28;20557;-51
2022/08/01 08:19:37;;;;;;;4.33;3.87;;;19.60;99.90;;;;;;5025251;28;20510;-52
2022/08/01 08:22:04;;;;;;;4.47;4.00;;;19.60;99.90;;;;;;5017045;28;20475;-52
2022/08/01 08:24:31;;;;;;;4.57;4.23;;;19.60;99.90;;;;;;5024404;28;20881;-52
2022/08/01 08:26:59;;;;;;;4.83;4.40;;;19.60;99.90;;;;;;5022378;28;20491;-51
2022/08/01 08:29:29;;;;;;;4.30;4.00;;;19.60;99.90;;;;;;5027169;28;20572;-51
2022/08/01 08:31:58;;;;;;;4.93;4.60;;;19.70;99.90;;;;;;5031191;28;20494;-50
2022/08/01 08:34:25;;;;;;;5.40;4.90;;;19.80;99.90;;;;;;5026033;28;21037;-51
2022/08/01 08:36:52;;;;;;;6.43;5.80;;;19.80;99.90;;;;;;5029221;28;20503;-52
2022/08/01 08:39:19;;;;;;;7.03;4.80;;;19.90;99.90;;;;;;5021114;28;20577;-52
2022/08/01 08:41:46;;;;;;;7.53;5.40;;;20.00;99.90;;;;;;5033410;28;20499;-51
2022/08/01 08:44:12;;;;;;;4.70;4.40;;;20.00;99.90;;;;;;5037533;28;20462;-51
2022/08/01 08:46:43;;;;;;;3.90;3.70;;;20.00;99.90;;;;;;5032413;28;20465;-52
2022/08/01 08:49:13;;;;;;;4.10;3.77;;;20.00;99.90;;;;;;5028610;28;20542;-51
2022/08/01 08:51:42;;;;;;;5.70;2.90;;;20.00;99.90;;;;;;5032451;28;20499;-51
2022/08/01 08:54:11;;;;;;;2.60;2.40;;;20.00;99.90;;;;;;5030025;28;20486;-50
2022/08/01 08:56:38;;;;;;;5.87;2.93;;;20.00;99.90;;;;;;5033430;28;20938;-51
2022/08/01 08:59:05;;;;;;;2.70;2.50;;;19.90;99.90;;;;;;5031942;28;20495;-52
2022/08/01 09:01:34;;;;;;;2.13;2.03;;;20.00;99.90;;;;;;5027938;28;20486;-51
2022/08/01 09:04:02;;;;;;;2.77;2.57;;;20.00;99.90;;;;;;5035073;28;20504;-51
2022/08/01 09:06:30;;;;;;;3.43;2.67;;;20.00;99.90;;;;;;5031074;28;20458;-52
2022/08/01 09:08:57;;;;;;;2.57;2.37;;;20.00;99.90;;;;;;5030761;28;20461;-51
2022/08/01 09:11:24;;;;;;;2.33;2.13;;;20.00;99.90;;;;;;5021320;28;20503;-52
2022/08/01 09:14:03;;;;;;;2.93;2.83;;;20.00;99.90;;;;;;5030164;28;20878;-53
2022/08/01 09:16:31;;;;;;;5.20;2.63;;;19.90;99.90;;;;;;5032041;28;20853;-51
2022/08/01 09:19:08;;;;;;;3.13;2.93;;;19.90;99.90;;;;;;5029653;28;20967;-52
2022/08/01 09:21:36;;;;;;;3.10;3.00;;;19.90;99.90;;;;;;5029386;28;20490;-51
2022/08/01 09:24:05;;;;;;;3.40;3.20;;;19.90;99.90;;;;;;5033210;28;21099;-51
2022/08/01 09:26:34;;;;;;;2.20;2.10;;;19.90;99.90;;;;;;5030900;28;20485;-51
2022/08/01 09:29:02;;;;;;;2.97;2.77;;;19.80;99.90;;;;;;5026346;28;20483;-51
2022/08/01 09:31:29;;;;;;;2.17;2.07;;;19.80;99.90;;;;;;5023466;28;20548;-51
2022/08/01 09:33:57;;;;;;;2.63;2.50;;;19.80;99.90;;;;;;5031107;28;20458;-51
2022/08/01 09:36:25;;;;;;;2.67;2.57;;;19.80;99.90;;;;;;5031288;28;20478;-52
2022/08/01 09:38:55;;;;;;;2.43;2.33;;;19.80;99.90;;;;;;5032428;28;20498;-51
2022/08/01 09:41:31;;;;;;;3.10;2.90;;;19.80;99.90;;;;;;5028073;28;20836;-51
2022/08/01 09:43:59;;;;;;;2.57;2.37;;;19.80;99.90;;;;;;5025375;28;20461;-51
2022/08/01 09:46:26;;;;;;;8.50;4.23;;;19.80;99.90;;;;;;5031065;28;20528;-52
2022/08/01 09:48:57;;;;;;;6.63;2.83;;;19.90;99.90;;;;;;5029436;28;20960;-52
2022/08/01 09:51:35;;;;;;;3.53;2.57;;;19.90;99.90;;;;;;5024488;28;20475;-52
2022/08/01 09:54:05;;;;;;;3.10;2.90;;;20.10;99.90;;;;;;5024958;28;22413;-52
2022/08/01 09:56:38;;;;;;;2.93;2.73;;;20.10;99.90;;;;;;5024348;28;20471;-51
2022/08/01 09:59:05;;;;;;;4.30;3.47;;;20.20;99.90;;;;;;5024437;28;20466;-51
2022/08/01 10:01:44;;;;;;;2.93;2.73;;;20.40;99.90;;;;;;5026576;28;20463;-53
2022/08/01 10:04:13;;;;;;;3.90;3.67;;;20.50;74.10;;;;;;5026938;28;20528;-51
2022/08/01 10:06:42;;;;;;;3.73;3.37;;;20.50;22.30;;;;;;5021729;28;22062;-51
2022/08/01 10:09:10;;;;;;;3.53;3.23;;;20.50;30.10;;;;;;5019280;28;20520;-50
2022/08/01 10:11:38;;;;;;;7.03;3.53;;;20.50;25.60;;;;;;5022284;28;20521;-52
2022/08/01 10:14:06;;;;;;;8.90;2.80;;;20.50;99.90;;;;;;5019446;28;20462;-52
2022/08/01 10:16:35;;;;;;;3.43;3.33;;;20.50;99.90;;;;;;5022574;28;20528;-53
2022/08/01 10:19:03;;;;;;;3.57;3.27;;;20.50;99.90;;;;;;5025081;28;20455;-52
2022/08/01 10:21:33;;;;;;;3.53;3.23;;;20.40;99.90;;;;;;5018285;28;20455;-51
2022/08/01 10:24:02;;;;;;;3.00;2.80;;;20.40;99.90;;;;;;5030745;28;20490;-52
2022/08/01 10:26:33;;;;;;;2.53;2.40;;;20.40;99.90;;;;;;5022758;28;20462;-52
2022/08/01 10:29:00;;;;;;;2.50;2.30;;;20.40;27.50;;;;;;5033549;28;20485;-51
2022/08/01 10:31:30;;;;;;;2.43;2.33;;;20.40;25.70;;;;;;5029285;28;20815;-52
2022/08/01 10:33:58;;;;;;;2.90;2.80;;;20.40;81.60;;;;;;5032307;28;20985;-51
2022/08/01 10:36:25;;;;;;;5.47;2.80;;;20.40;99.90;;;;;;5023095;28;20511;-51
2022/08/01 10:38:53;;;;;;;4.60;2.67;;;20.30;99.90;;;;;;5028172;28;20524;-52
2022/08/01 10:41:21;;;;;;;3.30;3.10;;;20.30;99.90;;;;;;5028304;28;20490;-50
2022/08/01 10:43:48;;;;;;;2.27;2.17;;;20.30;99.90;;;;;;5027791;28;20490;-51
2022/08/01 10:46:15;;;;;;;3.27;2.80;;;20.30;99.90;;;;;;5027187;28;20482;-51
2022/08/01 10:48:50;;;;;;;2.73;2.60;;;20.40;99.90;;;;;;5023722;28;20466;-51
2022/08/01 10:51:20;;;;;;;3.10;2.60;;;20.30;99.90;;;;;;5028149;28;20955;-51
2022/08/01 10:53:52;;;;;;;3.33;2.20;;;20.30;99.90;;;;;;5025778;28;20463;-52
2022/08/01 10:56:18;;;;;;;5.53;2.17;;;20.30;99.90;;;;;;5023695;28;20480;-51
2022/08/01 10:58:47;;;;;;;2.93;2.23;;;20.30;99.90;;;;;;5023338;28;20463;-52
2022/08/01 11:01:22;;;;;;;3.97;2.07;;;20.20;99.90;;;;;;5026200;28;20505;-51
2022/08/01 11:04:03;;;;;;;1.80;1.80;;;20.10;99.90;;;;;;5027787;28;20512;-51
2022/08/01 11:06:42;;;;;;;2.13;1.87;;;20.00;99.90;;;;;;5028879;28;20490;-52
2022/08/01 11:09:24;;;;;;;2.63;1.90;;;19.90;99.90;;;;;;5021410;28;20548;-51
2022/08/01 11:11:59;;;;;;;2.13;1.67;;;19.80;99.90;;;;;;5015511;28;20455;-52
2022/08/01 11:14:26;;;;;;;1.60;1.60;;;19.70;99.90;;;;;;5026433;28;20463;-51
2022/08/01 11:16:54;;;;;;;1.90;1.80;;;19.60;99.90;;;;;;5022866;28;21047;-51
2022/08/01 11:19:21;;;;;;;1.90;1.80;;;19.60;99.90;;;;;;5020518;28;20480;-51
2022/08/01 11:22:03;;;;;;;2.30;1.57;;;19.60;99.90;;;;;;5016763;28;20470;-51
2022/08/01 11:25:01;;;;;;;1.77;1.30;;;19.70;99.90;;;;;;5022146;28;20459;-50
2022/08/01 11:27:29;;;;;;;1.50;1.40;;;19.80;99.90;;;;;;4954586;28;20458;-52
2022/08/01 11:30:30;;;;;;;1.73;1.53;;;19.80;99.90;;;;;;4997111;28;20482;-50
2022/08/01 11:32:58;;;;;;;1.40;1.40;;;19.90;99.90;;;;;;4957131;28;20462;-51
2022/08/01 11:35:26;;;;;;;3.17;1.40;;;20.00;99.90;;;;;;4958683;28;20477;-50
2022/08/01 11:37:55;;;;;;;1.43;1.33;;;20.20;99.90;;;;;;4987109;28;20459;-51
2022/08/01 11:40:25;;;;;;;1.30;1.30;;;20.30;99.90;;;;;;5010903;28;20487;-51
2022/08/01 11:43:18;;;;;;;1.07;1.07;;;20.40;99.90;;;;;;5011878;28;20498;-51
2022/08/01 11:45:52;;;;;;;1.20;1.20;;;20.50;99.90;;;;;;5018994;28;20467;-51
2022/08/01 11:48:24;;;;;;;1.00;1.00;;;20.60;99.90;;;;;;5016019;28;20577;-51
2022/08/01 11:50:51;;;;;;;1.63;1.40;;;20.80;26.70;;;;;;5020641;28;20494;-52
2022/08/01 11:53:20;;;;;;;1.57;1.47;;;21.10;40.00;;;;;;5020469;28;20506;-50
2022/08/01 11:55:48;;;;;;;1.43;1.43;;;21.40;58.00;;;;;;5018716;28;20459;-52
2022/08/01 11:58:17;;;;;;;1.80;1.70;;;21.50;72.30;;;;;;5020081;28;20538;-52
2022/08/01 12:00:52;;;;;;;1.50;1.40;;;21.60;87.10;;;;;;5018643;28;20483;-51
2022/08/01 12:03:25;;;;;;;1.50;1.40;;;21.60;98.20;;;;;;5020098;28;20466;-51
2022/08/01 12:05:52;;;;;;;1.37;1.27;;;21.60;98.00;;;;;;5022598;28;20457;-51
2022/08/01 12:08:26;;;;;;;3.70;1.33;;;21.60;90.20;;;;;;5020863;28;20828;-51
2022/08/01 12:10:53;;;;;;;1.87;1.77;;;21.50;97.40;;;;;;5011602;28;20538;-50
2022/08/01 12:13:20;;;;;;;2.20;1.40;;;21.50;96.00;;;;;;5008988;28;20463;-52
2022/08/01 12:15:47;;;;;;;2.17;1.10;;;21.50;89.80;;;;;;5020619;28;20956;-51
2022/08/01 12:18:13;;;;;;;3.07;1.30;;;21.50;82.30;;;;;;5018421;28;20969;-50
2022/08/01 12:20:43;;;;;;;1.93;1.60;;;21.50;96.40;;;;;;5022297;28;20507;-51
2022/08/01 12:23:12;;;;;;;1.53;1.53;;;21.50;76.70;;;;;;5023824;28;20566;-51
2022/08/01 12:25:40;;;;;;;1.20;1.10;;;21.50;83.00;;;;;;5022864;28;20481;-52
2022/08/01 12:28:09;;;;;;;1.37;1.30;;;21.40;77.00;;;;;;5026696;28;20489;-52
2022/08/01 12:30:37;;;;;;;1.87;1.77;;;21.40;80.30;;;;;;5020602;28;21032;-51
2022/08/01 12:33:05;;;;;;;1.20;1.20;;;21.30;79.90;;;;;;5009393;28;20482;-50
2022/08/01 12:35:32;;;;;;;1.87;1.20;;;21.20;75.60;;;;;;5019406;28;20471;-52
2022/08/01 12:38:03;;;;;;;10.83;1.50;;;21.20;72.40;;;;;;5023859;28;20506;-51
2022/08/01 12:40:32;;;;;;;1.50;1.40;;;21.10;84.60;;;;;;5029321;28;21039;-51
2022/08/01 12:43:01;;;;;;;1.70;1.60;;;21.10;78.90;;;;;;5023014;28;20973;-50
2022/08/01 12:45:31;;;;;;;1.53;1.47;;;21.10;76.80;;;;;;5025769;28;20820;-51
2022/08/01 12:47:59;;;;;;;2.13;2.03;;;21.00;58.10;;;;;;5029413;28;20960;-52
2022/08/01 12:50:28;;;;;;;1.40;1.40;;;21.00;46.50;;;;;;5024010;28;20519;-51
2022/08/01 12:52:55;;;;;;;1.83;1.73;;;20.90;45.10;;;;;;5023326;28;20474;-51